Time,TemperatureF,DewpointF,PressureIn,WindDirection,WindDirectionDegrees,WindSpeedMPH,WindSpeedGustMPH,Humidity,HourlyPrecipIn,Conditions,Clouds,dailyrainin,SoftwareType,DateUTC
2013-09-25 00:01:00,40.1,36.8,29.89,WNW,293,0.0,2.2,88,0.00,,,0.00,WUHU216HW,2013-09-25 04:01:00,
2013-09-25 00:06:00,40.1,37.2,29.89,NNW,338,1.6,2.0,89,0.00,,,0.00,WUHU216HW,2013-09-25 04:06:00,
2013-09-25 00:11:00,40.0,36.6,29.89,WNW,293,0.0,1.8,88,0.00,,,0.00,WUHU216HW,2013-09-25 04:11:00,
2013-09-25 00:16:00,40.0,36.6,29.89,NE,45,1.6,1.8,88,0.00,,,0.00,WUHU216HW,2013-09-25 04:16:00,
2013-09-25 00:21:00,39.4,36.5,29.89,North,0,0.2,1.8,89,0.00,,,0.00,WUHU216HW,2013-09-25 04:21:00,
2013-09-25 00:26:00,39.2,36.3,29.89,NW,315,0.7,1.8,89,0.00,,,0.00,WUHU216HW,2013-09-25 04:26:00,
2013-09-25 00:31:00,39.2,36.3,29.89,NE,45,0.0,1.1,89,0.00,,,0.00,WUHU216HW,2013-09-25 04:31:00,
2013-09-25 00:36:00,39.1,36.1,29.89,NE,45,0.0,0.7,89,0.00,,,0.00,WUHU216HW,2013-09-25 04:36:00,
2013-09-25 00:41:00,38.7,35.7,29.89,North,0,0.0,0.4,89,0.00,,,0.00,WUHU216HW,2013-09-25 04:41:00,
2013-09-25 00:46:00,38.7,35.7,29.89,North,0,0.0,0.4,89,0.00,,,0.00,WUHU216HW,2013-09-25 04:46:00,
2013-09-25 00:51:00,38.5,35.6,29.89,NNW,338,0.0,0.9,89,0.00,,,0.00,WUHU216HW,2013-09-25 04:51:00,
2013-09-25 00:56:00,38.5,35.6,29.89,NNW,338,0.0,0.9,89,0.00,,,0.00,WUHU216HW,2013-09-25 04:56:00,
2013-09-25 01:01:00,38.3,35.4,29.89,North,0,0.4,0.7,89,0.00,,,0.00,WUHU216HW,2013-09-25 05:01:00,
2013-09-25 01:06:00,38.2,35.2,29.89,North,0,0.0,0.7,89,0.00,,,0.00,WUHU216HW,2013-09-25 05:06:00,
2013-09-25 01:11:00,38.0,35.0,29.89,NW,315,0.4,0.7,89,0.00,,,0.00,WUHU216HW,2013-09-25 05:11:00,
2013-09-25 01:16:00,38.0,35.0,29.89,NNW,338,0.0,0.7,89,0.00,,,0.00,WUHU216HW,2013-09-25 05:16:00,
2013-09-25 01:21:00,37.8,34.8,29.89,NNW,338,0.0,0.4,89,0.00,,,0.00,WUHU216HW,2013-09-25 05:21:00,
2013-09-25 01:26:00,37.8,34.8,29.89,NNW,338,1.1,1.1,89,0.00,,,0.00,WUHU216HW,2013-09-25 05:26:00,
2013-09-25 01:31:00,37.6,34.7,29.89,NNW,338,0.0,1.1,89,0.00,,,0.00,WUHU216HW,2013-09-25 05:31:00,
2013-09-25 01:36:00,37.6,34.7,29.89,NNW,338,0.0,1.1,89,0.00,,,0.00,WUHU216HW,2013-09-25 05:36:00,
2013-09-25 01:41:00,37.6,34.7,29.89,NNW,338,0.2,1.1,89,0.00,,,0.00,WUHU216HW,2013-09-25 05:41:00,
2013-09-25 01:46:00,37.4,34.5,29.89,NE,45,0.4,1.1,89,0.00,,,0.00,WUHU216HW,2013-09-25 05:46:00,
2013-09-25 01:51:00,37.3,34.0,29.89,NW,315,0.7,1.1,88,0.00,,,0.00,WUHU216HW,2013-09-25 05:51:00,
2013-09-25 01:56:00,37.3,34.3,29.89,WNW,293,0.9,1.1,89,0.00,,,0.00,WUHU216HW,2013-09-25 05:56:00,
2013-09-25 02:01:00,37.3,34.3,29.89,NW,315,1.1,1.1,89,0.00,,,0.00,WUHU216HW,2013-09-25 06:01:00,
2013-09-25 02:06:00,37.4,34.5,29.89,North,0,0.0,1.1,89,0.00,,,0.00,WUHU216HW,2013-09-25 06:06:00,
2013-09-25 02:11:00,37.4,34.5,29.89,North,0,0.2,1.1,89,0.00,,,0.00,WUHU216HW,2013-09-25 06:11:00,
2013-09-25 02:16:00,37.3,34.3,29.89,ENE,68,0.0,0.4,89,0.00,,,0.00,WUHU216HW,2013-09-25 06:16:00,
2013-09-25 02:21:00,37.3,34.3,29.89,WNW,293,0.7,1.1,89,0.00,,,0.00,WUHU216HW,2013-09-25 06:21:00,
2013-09-25 02:26:00,37.6,34.9,29.89,NW,315,0.0,1.1,90,0.00,,,0.00,WUHU216HW,2013-09-25 06:26:00,
2013-09-25 02:31:00,37.8,35.1,29.89,NW,315,0.0,0.7,90,0.00,,,0.00,WUHU216HW,2013-09-25 06:31:00,
2013-09-25 02:36:00,37.8,35.1,29.89,NNE,23,0.0,1.1,90,0.00,,,0.00,WUHU216HW,2013-09-25 06:36:00,
2013-09-25 02:41:00,38.0,35.3,29.89,NNE,23,0.0,1.1,90,0.00,,,0.00,WUHU216HW,2013-09-25 06:41:00,
2013-09-25 02:46:00,38.2,35.5,29.90,North,0,0.9,0.9,90,0.00,,,0.00,WUHU216HW,2013-09-25 06:46:00,
2013-09-25 02:51:00,38.2,35.5,29.90,NNE,23,0.9,1.3,90,0.00,,,0.00,WUHU216HW,2013-09-25 06:51:00,
2013-09-25 02:56:00,38.3,35.6,29.90,SE,135,0.4,1.3,90,0.00,,,0.00,WUHU216HW,2013-09-25 06:56:00,
2013-09-25 03:01:00,38.5,35.8,29.90,NNW,338,0.0,1.3,90,0.00,,,0.00,WUHU216HW,2013-09-25 07:01:00,
2013-09-25 03:06:00,38.9,36.2,29.90,East,90,0.4,1.3,90,0.00,,,0.00,WUHU216HW,2013-09-25 07:06:00,
2013-09-25 03:11:00,39.1,36.4,29.89,NW,315,0.0,0.9,90,0.00,,,0.00,WUHU216HW,2013-09-25 07:11:00,
2013-09-25 03:16:00,39.2,36.5,29.89,NW,315,0.0,0.4,90,0.00,,,0.00,WUHU216HW,2013-09-25 07:16:00,
2013-09-25 03:21:00,39.2,36.5,29.90,NW,315,0.0,1.1,90,0.00,,,0.00,WUHU216HW,2013-09-25 07:21:00,
2013-09-25 03:26:00,39.2,36.5,29.90,NNW,338,0.4,1.1,90,0.00,,,0.00,WUHU216HW,2013-09-25 07:26:00,
2013-09-25 03:31:00,39.4,36.7,29.90,NNW,338,0.4,1.3,90,0.00,,,0.00,WUHU216HW,2013-09-25 07:31:00,
2013-09-25 03:36:00,39.4,36.7,29.90,NNE,23,0.4,1.3,90,0.00,,,0.00,WUHU216HW,2013-09-25 07:36:00,
2013-09-25 03:41:00,39.6,36.9,29.90,NNE,23,0.0,1.3,90,0.00,,,0.00,WUHU216HW,2013-09-25 07:41:00,
2013-09-25 03:46:00,39.8,37.1,29.90,NNE,23,0.0,0.4,90,0.00,,,0.00,WUHU216HW,2013-09-25 07:46:00,
2013-09-25 03:51:00,40.0,37.3,29.90,NNE,23,0.0,0.0,90,0.00,,,0.00,WUHU216HW,2013-09-25 07:51:00,
2013-09-25 03:56:00,40.1,37.4,29.90,NNW,338,0.0,0.0,90,0.00,,,0.00,WUHU216HW,2013-09-25 07:56:00,
2013-09-25 04:01:00,40.1,37.4,29.91,WNW,293,0.7,1.1,90,0.00,,,0.00,WUHU216HW,2013-09-25 08:01:00,
2013-09-25 04:06:00,40.1,37.4,29.91,NNW,338,1.1,1.1,90,0.00,,,0.00,WUHU216HW,2013-09-25 08:06:00,
2013-09-25 04:11:00,40.1,37.4,29.90,NNW,338,0.0,1.1,90,0.00,,,0.00,WUHU216HW,2013-09-25 08:11:00,
2013-09-25 04:16:00,40.0,37.3,29.90,North,0,0.2,1.1,90,0.00,,,0.00,WUHU216HW,2013-09-25 08:16:00,
2013-09-25 04:21:00,40.0,37.3,29.90,North,0,0.0,1.1,90,0.00,,,0.00,WUHU216HW,2013-09-25 08:21:00,
2013-09-25 04:26:00,39.8,37.1,29.90,North,0,0.2,0.7,90,0.00,,,0.00,WUHU216HW,2013-09-25 08:26:00,
2013-09-25 04:31:00,39.6,36.9,29.90,NW,315,0.4,1.1,90,0.00,,,0.00,WUHU216HW,2013-09-25 08:31:00,
2013-09-25 04:36:00,39.4,36.7,29.90,North,0,0.4,1.1,90,0.00,,,0.00,WUHU216HW,2013-09-25 08:36:00,
2013-09-25 04:41:00,39.2,36.5,29.90,WNW,293,0.9,1.1,90,0.00,,,0.00,WUHU216HW,2013-09-25 08:41:00,
2013-09-25 04:46:00,39.2,36.5,29.90,NE,45,0.0,0.9,90,0.00,,,0.00,WUHU216HW,2013-09-25 08:46:00,
2013-09-25 04:51:00,39.1,36.4,29.90,North,0,0.0,0.9,90,0.00,,,0.00,WUHU216HW,2013-09-25 08:51:00,
2013-09-25 04:56:00,38.9,36.2,29.90,North,0,1.1,1.6,90,0.00,,,0.00,WUHU216HW,2013-09-25 08:56:00,
2013-09-25 05:01:00,38.9,36.2,29.90,NNE,23,0.7,1.8,90,0.00,,,0.00,WUHU216HW,2013-09-25 09:01:00,
2013-09-25 05:06:00,38.7,36.0,29.90,East,90,0.7,2.2,90,0.00,,,0.00,WUHU216HW,2013-09-25 09:06:00,
2013-09-25 05:11:00,38.7,36.0,29.90,NNW,338,0.4,2.2,90,0.00,,,0.00,WUHU216HW,2013-09-25 09:11:00,
2013-09-25 05:16:00,38.9,36.2,29.91,ENE,68,1.1,1.3,90,0.00,,,0.00,WUHU216HW,2013-09-25 09:16:00,
2013-09-25 05:21:00,38.9,36.2,29.91,NNE,23,0.4,1.3,90,0.00,,,0.00,WUHU216HW,2013-09-25 09:21:00,
2013-09-25 05:26:00,39.1,36.4,29.91,ESE,113,0.0,1.1,90,0.00,,,0.00,WUHU216HW,2013-09-25 09:26:00,
2013-09-25 05:31:00,39.2,36.5,29.91,West,270,0.0,1.3,90,0.00,,,0.00,WUHU216HW,2013-09-25 09:31:00,
2013-09-25 05:36:00,39.4,36.7,29.91,NW,315,0.0,1.3,90,0.00,,,0.00,WUHU216HW,2013-09-25 09:36:00,
2013-09-25 05:41:00,39.4,36.7,29.91,NNW,338,0.0,1.1,90,0.00,,,0.00,WUHU216HW,2013-09-25 09:41:00,
2013-09-25 05:46:00,39.4,36.7,29.91,North,0,0.2,0.4,90,0.00,,,0.00,WUHU216HW,2013-09-25 09:46:00,
2013-09-25 05:51:00,39.6,37.2,29.91,NNE,23,0.4,1.1,91,0.00,,,0.00,WUHU216HW,2013-09-25 09:51:00,
2013-09-25 05:56:00,39.6,37.2,29.91,North,0,0.0,1.1,91,0.00,,,0.00,WUHU216HW,2013-09-25 09:56:00,
2013-09-25 06:01:00,39.8,37.4,29.91,NW,315,0.0,1.6,91,0.00,,,0.00,WUHU216HW,2013-09-25 10:01:00,
2013-09-25 06:06:00,40.0,37.3,29.91,NNW,338,0.0,1.6,90,0.00,,,0.00,WUHU216HW,2013-09-25 10:06:00,
2013-09-25 06:11:00,40.0,37.3,29.91,SW,225,0.0,1.1,90,0.00,,,0.00,WUHU216HW,2013-09-25 10:11:00,
2013-09-25 06:16:00,40.1,37.4,29.91,NNW,338,0.0,1.1,90,0.00,,,0.00,WUHU216HW,2013-09-25 10:16:00,
2013-09-25 06:21:00,40.3,37.6,29.91,NE,45,0.4,1.8,90,0.00,,,0.00,WUHU216HW,2013-09-25 10:21:00,
2013-09-25 06:26:00,40.3,37.6,29.91,NNE,23,0.0,1.8,90,0.00,,,0.00,WUHU216HW,2013-09-25 10:26:00,
2013-09-25 06:31:00,40.3,37.6,29.91,North,0,0.0,0.4,90,0.00,,,0.00,WUHU216HW,2013-09-25 10:31:00,
2013-09-25 06:36:00,40.5,37.8,29.91,NW,315,0.7,0.7,90,0.00,,,0.00,WUHU216HW,2013-09-25 10:36:00,
2013-09-25 06:41:00,40.5,37.8,29.91,NNE,23,0.0,0.9,90,0.00,,,0.00,WUHU216HW,2013-09-25 10:41:00,
2013-09-25 06:46:00,40.5,37.8,29.91,NNE,23,0.0,0.9,90,0.00,,,0.00,WUHU216HW,2013-09-25 10:46:00,
2013-09-25 06:51:00,40.5,37.8,29.91,NNE,23,0.0,0.0,90,0.00,,,0.00,WUHU216HW,2013-09-25 10:51:00,
2013-09-25 06:56:00,40.7,38.0,29.92,NNW,338,0.4,1.1,90,0.00,,,0.00,WUHU216HW,2013-09-25 10:56:00,
2013-09-25 07:01:00,40.9,38.2,29.91,NE,45,0.2,1.8,90,0.00,,,0.00,WUHU216HW,2013-09-25 11:01:00,
2013-09-25 07:06:00,40.9,38.2,29.91,East,90,0.4,1.8,90,0.00,,,0.00,WUHU216HW,2013-09-25 11:06:00,
2013-09-25 07:11:00,41.0,38.3,29.91,East,90,0.4,0.9,90,0.00,,,0.00,WUHU216HW,2013-09-25 11:11:00,
2013-09-25 07:16:00,41.4,38.7,29.92,NNW,338,0.2,1.1,90,0.00,,,0.00,WUHU216HW,2013-09-25 11:16:00,
2013-09-25 07:21:00,41.6,38.9,29.92,North,0,0.0,1.1,90,0.00,,,0.00,WUHU216HW,2013-09-25 11:21:00,
2013-09-25 07:26:00,41.9,39.2,29.92,North,0,0.4,1.1,90,0.00,,,0.00,WUHU216HW,2013-09-25 11:26:00,
2013-09-25 07:31:00,42.1,39.4,29.91,NE,45,1.6,2.5,90,0.00,,,0.00,WUHU216HW,2013-09-25 11:31:00,
2013-09-25 07:36:00,42.1,39.4,29.91,West,270,0.0,2.5,90,0.00,,,0.00,WUHU216HW,2013-09-25 11:36:00,
2013-09-25 07:41:00,42.3,39.6,29.91,NNE,23,0.0,1.8,90,0.00,,,0.00,WUHU216HW,2013-09-25 11:41:00,
2013-09-25 07:46:00,42.5,39.8,29.91,NNW,338,0.4,1.1,90,0.00,,,0.00,WUHU216HW,2013-09-25 11:46:00,
2013-09-25 07:51:00,42.8,40.1,29.91,NE,45,0.9,1.8,90,0.00,,,0.00,WUHU216HW,2013-09-25 11:51:00,
2013-09-25 07:56:00,43.0,40.3,29.91,NW,315,0.0,1.8,90,0.00,,,0.00,WUHU216HW,2013-09-25 11:56:00,
2013-09-25 08:01:00,43.4,40.7,29.91,NW,315,0.4,1.3,90,0.00,,,0.00,WUHU216HW,2013-09-25 12:01:00,
2013-09-25 08:06:00,43.7,41.0,29.92,West,270,0.4,1.1,90,0.00,,,0.00,WUHU216HW,2013-09-25 12:06:00,
2013-09-25 08:11:00,44.3,41.6,29.92,South,180,0.0,1.1,90,0.00,,,0.00,WUHU216HW,2013-09-25 12:11:00,
2013-09-25 08:16:00,45.0,42.6,29.92,WSW,248,0.0,0.9,91,0.00,,,0.00,WUHU216HW,2013-09-25 12:16:00,
2013-09-25 08:21:00,45.2,42.8,29.92,North,0,0.4,1.1,91,0.00,,,0.00,WUHU216HW,2013-09-25 12:21:00,
2013-09-25 08:26:00,45.7,43.3,29.91,North,0,0.0,1.1,91,0.00,,,0.00,WUHU216HW,2013-09-25 12:26:00,
2013-09-25 08:27:00,45.7,43.3,29.91,North,0,0.0,1.1,91,0.00,,,0.00,WUHU216HW,2013-09-25 12:27:00,
2013-09-25 08:32:00,46.4,43.7,29.91,SSE,158,0.4,1.1,90,0.00,,,0.00,WUHU216HW,2013-09-25 12:32:00,
2013-09-25 08:37:00,47.2,44.5,29.91,SW,225,0.4,1.1,90,0.00,,,0.00,WUHU216HW,2013-09-25 12:37:00,
2013-09-25 08:42:00,47.7,44.6,29.91,North,0,0.9,0.9,89,0.00,,,0.00,WUHU216HW,2013-09-25 12:42:00,
2013-09-25 08:47:00,48.1,44.7,29.91,NNE,23,0.0,0.9,88,0.00,,,0.00,WUHU216HW,2013-09-25 12:47:00,
2013-09-25 08:52:00,48.4,44.7,29.91,ESE,113,0.7,1.1,87,0.00,,,0.00,WUHU216HW,2013-09-25 12:52:00,
2013-09-25 08:57:00,48.6,44.6,29.91,ESE,113,1.1,2.0,86,0.00,,,0.00,WUHU216HW,2013-09-25 12:57:00,
2013-09-25 09:02:00,48.6,44.3,29.91,ESE,113,1.3,2.5,85,0.00,,,0.00,WUHU216HW,2013-09-25 13:02:00,
2013-09-25 09:07:00,49.1,44.8,29.91,SE,135,0.9,2.5,85,0.00,,,0.00,WUHU216HW,2013-09-25 13:07:00,
2013-09-25 09:12:00,49.7,45.3,29.91,SSW,203,1.1,2.0,85,0.00,,,0.00,WUHU216HW,2013-09-25 13:12:00,
2013-09-25 09:17:00,50.2,45.6,29.91,SW,225,0.0,2.5,84,0.00,,,0.00,WUHU216HW,2013-09-25 13:17:00,
2013-09-25 09:22:00,50.8,46.1,29.91,South,180,2.7,3.6,84,0.00,,,0.00,WUHU216HW,2013-09-25 13:22:00,
2013-09-25 09:27:00,51.5,46.4,29.92,ESE,113,0.4,3.6,83,0.00,,,0.00,WUHU216HW,2013-09-25 13:27:00,
2013-09-25 09:32:00,51.8,46.5,29.92,South,180,1.8,2.7,82,0.00,,,0.00,WUHU216HW,2013-09-25 13:32:00,
2013-09-25 09:37:00,52.4,46.7,29.92,South,180,0.9,2.2,81,0.00,,,0.00,WUHU216HW,2013-09-25 13:37:00,
2013-09-25 09:42:00,52.6,45.9,29.91,SSW,203,3.4,4.0,78,0.00,,,0.00,WUHU216HW,2013-09-25 13:42:00,
2013-09-25 09:47:00,52.4,46.1,29.91,SSW,203,2.9,4.0,79,0.00,,,0.00,WUHU216HW,2013-09-25 13:47:00,
2013-09-25 09:52:00,52.6,46.3,29.91,South,180,1.8,3.6,79,0.00,,,0.00,WUHU216HW,2013-09-25 13:52:00,
2013-09-25 09:57:00,53.3,47.0,29.91,South,180,2.7,3.4,79,0.00,,,0.00,WUHU216HW,2013-09-25 13:57:00,
2013-09-25 10:02:00,53.8,47.2,29.91,SSE,158,3.6,3.6,78,0.00,,,0.00,WUHU216HW,2013-09-25 14:02:00,
2013-09-25 10:07:00,54.4,47.6,29.91,SE,135,3.4,3.6,78,0.00,,,0.00,WUHU216HW,2013-09-25 14:07:00,
2013-09-25 10:12:00,54.7,48.0,29.91,SSE,158,4.0,4.0,78,0.00,,,0.00,WUHU216HW,2013-09-25 14:12:00,
2013-09-25 10:17:00,54.9,48.2,29.91,South,180,1.8,4.7,78,0.00,,,0.00,WUHU216HW,2013-09-25 14:17:00,
2013-09-25 10:22:00,55.3,48.2,29.91,SSE,158,2.5,4.7,77,0.00,,,0.00,WUHU216HW,2013-09-25 14:22:00,
2013-09-25 10:27:00,55.4,48.0,29.91,NE,45,1.1,2.7,76,0.00,,,0.00,WUHU216HW,2013-09-25 14:27:00,
2013-09-25 10:32:00,54.7,46.6,29.92,SSE,158,0.7,2.7,74,0.00,,,0.00,WUHU216HW,2013-09-25 14:32:00,
2013-09-25 10:37:00,54.5,46.8,29.91,SSE,158,2.5,4.0,75,0.00,,,0.00,WUHU216HW,2013-09-25 14:37:00,
2013-09-25 10:42:00,54.7,46.9,29.91,ESE,113,1.1,4.0,75,0.00,,,0.00,WUHU216HW,2013-09-25 14:42:00,
2013-09-25 10:47:00,54.7,46.9,29.92,SSE,158,2.0,3.8,75,0.00,,,0.00,WUHU216HW,2013-09-25 14:47:00,
2013-09-25 10:52:00,55.1,47.3,29.92,SE,135,0.7,3.8,75,0.00,,,0.00,WUHU216HW,2013-09-25 14:52:00,
2013-09-25 10:57:00,55.3,47.4,29.92,South,180,2.5,3.1,75,0.00,,,0.00,WUHU216HW,2013-09-25 14:57:00,
2013-09-25 11:02:00,55.1,46.9,29.92,SSE,158,2.2,3.1,74,0.00,,,0.00,WUHU216HW,2013-09-25 15:02:00,
2013-09-25 11:07:00,54.9,46.7,29.92,SSW,203,1.8,3.1,74,0.00,,,0.00,WUHU216HW,2013-09-25 15:07:00,
2013-09-25 11:12:00,55.1,46.6,29.92,South,180,0.9,3.1,73,0.00,,,0.00,WUHU216HW,2013-09-25 15:12:00,
2013-09-25 11:17:00,55.1,46.9,29.92,SSW,203,1.8,2.9,74,0.00,,,0.00,WUHU216HW,2013-09-25 15:17:00,
2013-09-25 11:22:00,54.9,46.7,29.92,WSW,248,1.1,2.5,74,0.00,,,0.00,WUHU216HW,2013-09-25 15:22:00,
2013-09-25 11:27:00,54.9,46.7,29.92,SSE,158,1.1,2.7,74,0.00,,,0.00,WUHU216HW,2013-09-25 15:27:00,
2013-09-25 11:32:00,55.1,46.9,29.92,SSE,158,3.1,3.1,74,0.00,,,0.00,WUHU216HW,2013-09-25 15:32:00,
2013-09-25 11:37:00,55.1,46.9,29.92,South,180,0.2,3.1,74,0.00,,,0.00,WUHU216HW,2013-09-25 15:37:00,
2013-09-25 11:42:00,55.1,46.9,29.92,SW,225,1.6,3.1,74,0.00,,,0.00,WUHU216HW,2013-09-25 15:42:00,
2013-09-25 11:47:00,55.1,46.9,29.92,SSW,203,1.6,2.2,74,0.00,,,0.00,WUHU216HW,2013-09-25 15:47:00,
2013-09-25 11:52:00,55.4,47.3,29.92,SSW,203,0.4,2.2,74,0.00,,,0.00,WUHU216HW,2013-09-25 15:52:00,
2013-09-25 11:57:00,55.6,47.4,29.92,SSW,203,1.1,1.6,74,0.00,,,0.00,WUHU216HW,2013-09-25 15:57:00,
2013-09-25 12:02:00,55.8,47.3,29.92,SW,225,0.2,1.3,73,0.00,,,0.00,WUHU216HW,2013-09-25 16:02:00,
2013-09-25 12:07:00,55.6,47.1,29.92,West,270,1.1,2.0,73,0.00,,,0.00,WUHU216HW,2013-09-25 16:07:00,
2013-09-25 12:12:00,55.8,47.3,29.92,WSW,248,0.9,2.0,73,0.00,,,0.00,WUHU216HW,2013-09-25 16:12:00,
2013-09-25 12:17:00,55.6,47.1,29.92,WSW,248,1.6,2.7,73,0.00,,,0.00,WUHU216HW,2013-09-25 16:17:00,
2013-09-25 12:22:00,56.0,47.4,29.92,WNW,293,0.4,2.7,73,0.00,,,0.00,WUHU216HW,2013-09-25 16:22:00,
2013-09-25 12:27:00,56.2,46.9,29.92,NNW,338,1.1,1.8,71,0.00,,,0.00,WUHU216HW,2013-09-25 16:27:00,
2013-09-25 12:32:00,55.8,46.5,29.92,NNW,338,1.1,2.5,71,0.00,,,0.00,WUHU216HW,2013-09-25 16:32:00,
2013-09-25 12:37:00,55.8,46.5,29.92,NNW,338,2.5,2.5,71,0.00,,,0.00,WUHU216HW,2013-09-25 16:37:00,
2013-09-25 12:42:00,55.8,46.5,29.92,NNW,338,1.6,4.0,71,0.00,,,0.00,WUHU216HW,2013-09-25 16:42:00,
2013-09-25 12:47:00,56.2,46.9,29.92,West,270,2.2,4.0,71,0.00,,,0.00,WUHU216HW,2013-09-25 16:47:00,
2013-09-25 12:52:00,56.3,47.1,29.92,NNW,338,3.8,3.8,71,0.00,,,0.00,WUHU216HW,2013-09-25 16:52:00,
2013-09-25 12:57:00,56.3,47.1,29.92,SW,225,0.9,3.8,71,0.00,,,0.00,WUHU216HW,2013-09-25 16:57:00,
2013-09-25 13:02:00,56.3,46.3,29.92,North,0,5.4,5.6,69,0.00,,,0.00,WUHU216HW,2013-09-25 17:02:00,
2013-09-25 13:07:00,55.8,45.8,29.92,WNW,293,3.8,5.6,69,0.00,,,0.00,WUHU216HW,2013-09-25 17:07:00,
2013-09-25 13:12:00,55.4,45.9,29.92,West,270,2.2,5.4,70,0.00,,,0.00,WUHU216HW,2013-09-25 17:12:00,
2013-09-25 13:17:00,55.3,45.7,29.92,West,270,0.4,5.4,70,0.00,,,0.00,WUHU216HW,2013-09-25 17:17:00,
2013-09-25 13:22:00,55.1,45.9,29.92,SSE,158,0.7,4.7,71,0.00,,,0.00,WUHU216HW,2013-09-25 17:22:00,
2013-09-25 13:27:00,55.3,45.7,29.92,West,270,2.5,4.5,70,0.00,,,0.00,WUHU216HW,2013-09-25 17:27:00,
2013-09-25 13:32:00,55.3,46.1,29.92,NNE,23,1.8,4.5,71,0.00,,,0.00,WUHU216HW,2013-09-25 17:32:00,
2013-09-25 13:37:00,55.3,46.1,29.92,NE,45,2.5,4.5,71,0.00,,,0.00,WUHU216HW,2013-09-25 17:37:00,
2013-09-25 13:42:00,55.1,45.9,29.92,NW,315,2.2,3.4,71,0.00,,,0.00,WUHU216HW,2013-09-25 17:42:00,
2013-09-25 13:47:00,54.7,45.9,29.92,NNE,23,1.8,3.4,72,0.00,,,0.00,WUHU216HW,2013-09-25 17:47:00,
2013-09-25 13:52:00,54.7,45.9,29.92,North,0,1.8,3.4,72,0.00,,,0.00,WUHU216HW,2013-09-25 17:52:00,
2013-09-25 13:57:00,54.4,45.6,29.92,West,270,2.0,5.6,72,0.00,,,0.00,WUHU216HW,2013-09-25 17:57:00,
2013-09-25 14:02:00,54.4,45.9,29.92,West,270,2.2,5.6,73,0.00,,,0.00,WUHU216HW,2013-09-25 18:02:00,
2013-09-25 14:07:00,54.4,45.9,29.92,NNW,338,3.1,5.4,73,0.00,,,0.00,WUHU216HW,2013-09-25 18:07:00,
2013-09-25 14:12:00,54.4,45.9,29.92,NNW,338,0.2,5.4,73,0.00,,,0.00,WUHU216HW,2013-09-25 18:12:00,
2013-09-25 14:17:00,54.4,45.9,29.92,West,270,1.1,4.0,73,0.00,,,0.00,WUHU216HW,2013-09-25 18:17:00,
2013-09-25 14:22:00,54.4,45.9,29.92,West,270,1.8,4.0,73,0.00,,,0.00,WUHU216HW,2013-09-25 18:22:00,
2013-09-25 14:27:00,54.4,45.9,29.92,NW,315,1.1,3.4,73,0.00,,,0.00,WUHU216HW,2013-09-25 18:27:00,
2013-09-25 14:32:00,54.2,45.7,29.92,North,0,0.9,3.4,73,0.00,,,0.00,WUHU216HW,2013-09-25 18:32:00,
2013-09-25 14:37:00,54.5,46.1,29.92,North,0,2.2,2.7,73,0.00,,,0.00,WUHU216HW,2013-09-25 18:37:00,
2013-09-25 14:42:00,54.5,46.5,29.92,NW,315,2.9,6.0,74,0.00,,,0.00,WUHU216HW,2013-09-25 18:42:00,
2013-09-25 14:47:00,54.4,45.9,29.92,NE,45,6.0,6.0,73,0.00,,,0.00,WUHU216HW,2013-09-25 18:47:00,
2013-09-25 14:52:00,54.4,45.9,29.92,East,90,0.7,7.2,73,0.00,,,0.00,WUHU216HW,2013-09-25 18:52:00,
2013-09-25 14:57:00,54.2,45.7,29.92,West,270,4.0,7.2,73,0.00,,,0.00,WUHU216HW,2013-09-25 18:57:00,
2013-09-25 15:02:00,54.0,45.6,29.92,NNE,23,0.9,6.7,73,0.00,,,0.00,WUHU216HW,2013-09-25 19:02:00,
2013-09-25 15:07:00,54.0,45.9,29.92,ENE,68,5.4,7.4,74,0.00,,,0.00,WUHU216HW,2013-09-25 19:07:00,
2013-09-25 15:12:00,54.2,46.1,29.92,NNE,23,2.5,7.4,74,0.00,,,0.00,WUHU216HW,2013-09-25 19:12:00,
2013-09-25 15:17:00,54.5,46.5,29.92,NW,315,1.8,5.4,74,0.00,,,0.00,WUHU216HW,2013-09-25 19:17:00,
2013-09-25 15:22:00,54.4,45.9,29.92,NW,315,3.4,7.6,73,0.00,,,0.00,WUHU216HW,2013-09-25 19:22:00,
2013-09-25 15:27:00,54.4,45.9,29.92,NNW,338,2.5,7.6,73,0.00,,,0.00,WUHU216HW,2013-09-25 19:27:00,
2013-09-25 15:32:00,54.4,45.9,29.92,NE,45,0.4,5.4,73,0.00,,,0.00,WUHU216HW,2013-09-25 19:32:00,
2013-09-25 15:37:00,54.4,45.9,29.92,NNW,338,1.1,4.0,73,0.00,,,0.00,WUHU216HW,2013-09-25 19:37:00,
2013-09-25 15:42:00,54.0,45.6,29.92,WSW,248,0.2,4.3,73,0.00,,,0.00,WUHU216HW,2013-09-25 19:42:00,
2013-09-25 15:47:00,54.0,45.6,29.92,NE,45,1.1,4.3,73,0.00,,,0.00,WUHU216HW,2013-09-25 19:47:00,
2013-09-25 15:52:00,54.2,45.7,29.92,NNW,338,0.0,3.6,73,0.00,,,0.00,WUHU216HW,2013-09-25 19:52:00,
2013-09-25 15:57:00,54.0,45.6,29.92,NW,315,2.0,3.1,73,0.00,,,0.00,WUHU216HW,2013-09-25 19:57:00,
2013-09-25 16:02:00,53.8,45.4,29.93,NNW,338,3.1,4.7,73,0.00,,,0.00,WUHU216HW,2013-09-25 20:02:00,
2013-09-25 16:07:00,53.6,45.2,29.93,NE,45,1.8,4.7,73,0.00,,,0.00,WUHU216HW,2013-09-25 20:07:00,
2013-09-25 16:12:00,53.6,45.2,29.93,North,0,1.3,4.5,73,0.00,,,0.00,WUHU216HW,2013-09-25 20:12:00,
2013-09-25 16:17:00,53.5,45.0,29.93,NNW,338,0.7,4.5,73,0.00,,,0.00,WUHU216HW,2013-09-25 20:17:00,
2013-09-25 16:22:00,53.5,45.4,29.93,NNW,338,1.6,4.0,74,0.00,,,0.00,WUHU216HW,2013-09-25 20:22:00,
2013-09-25 16:27:00,53.5,45.4,29.93,NNW,338,1.1,3.6,74,0.00,,,0.00,WUHU216HW,2013-09-25 20:27:00,
2013-09-25 16:32:00,53.5,45.4,29.93,WSW,248,0.9,3.6,74,0.00,,,0.00,WUHU216HW,2013-09-25 20:32:00,
2013-09-25 16:37:00,53.5,45.4,29.93,NW,315,1.1,3.8,74,0.00,,,0.00,WUHU216HW,2013-09-25 20:37:00,
2013-09-25 16:42:00,53.3,45.2,29.93,WNW,293,2.9,3.8,74,0.00,,,0.00,WUHU216HW,2013-09-25 20:42:00,
2013-09-25 16:47:00,53.3,44.8,29.93,NNW,338,0.7,3.4,73,0.00,,,0.00,WUHU216HW,2013-09-25 20:47:00,
2013-09-25 16:52:00,53.3,44.8,29.93,WSW,248,1.8,4.3,73,0.00,,,0.00,WUHU216HW,2013-09-25 20:52:00,
2013-09-25 16:57:00,53.3,44.8,29.93,WNW,293,1.1,4.3,73,0.00,,,0.00,WUHU216HW,2013-09-25 20:57:00,
2013-09-25 17:02:00,53.3,45.2,29.93,WSW,248,0.0,2.0,74,0.00,,,0.00,WUHU216HW,2013-09-25 21:02:00,
2013-09-25 17:07:00,53.3,45.2,29.94,ENE,68,0.0,2.0,74,0.00,,,0.00,WUHU216HW,2013-09-25 21:07:00,
2013-09-25 17:12:00,53.3,45.5,29.94,NNE,23,0.7,1.1,75,0.00,,,0.00,WUHU216HW,2013-09-25 21:12:00,
2013-09-25 17:17:00,53.3,45.2,29.94,NW,315,2.0,2.7,74,0.00,,,0.00,WUHU216HW,2013-09-25 21:17:00,
2013-09-25 17:22:00,53.1,45.0,29.94,North,0,1.1,2.7,74,0.00,,,0.00,WUHU216HW,2013-09-25 21:22:00,
2013-09-25 17:27:00,53.1,45.0,29.94,ENE,68,0.2,2.0,74,0.00,,,0.00,WUHU216HW,2013-09-25 21:27:00,
2013-09-25 17:32:00,52.9,45.2,29.94,NNW,338,0.0,1.1,75,0.00,,,0.00,WUHU216HW,2013-09-25 21:32:00,
2013-09-25 17:37:00,52.9,45.2,29.94,North,0,0.0,0.4,75,0.00,,,0.00,WUHU216HW,2013-09-25 21:37:00,
2013-09-25 17:42:00,52.9,45.2,29.94,North,0,0.0,0.0,75,0.00,,,0.00,WUHU216HW,2013-09-25 21:42:00,
2013-09-25 17:47:00,52.9,45.2,29.94,NW,315,0.4,0.4,75,0.00,,,0.00,WUHU216HW,2013-09-25 21:47:00,
2013-09-25 17:52:00,52.6,44.9,29.94,NW,315,0.0,0.4,75,0.00,,,0.00,WUHU216HW,2013-09-25 21:52:00,
2013-09-25 17:57:00,52.6,45.2,29.94,NW,315,0.0,0.4,76,0.00,,,0.00,WUHU216HW,2013-09-25 21:57:00,
2013-09-25 18:02:00,52.4,45.1,29.94,West,270,0.0,0.0,76,0.00,,,0.00,WUHU216HW,2013-09-25 22:02:00,
2013-09-25 18:07:00,52.2,44.9,29.94,WSW,248,0.7,1.1,76,0.00,,,0.00,WUHU216HW,2013-09-25 22:07:00,
2013-09-25 18:12:00,52.2,44.9,29.94,West,270,0.9,1.1,76,0.00,,,0.00,WUHU216HW,2013-09-25 22:12:00,
2013-09-25 18:17:00,52.2,45.2,29.94,West,270,0.0,1.1,77,0.00,,,0.00,WUHU216HW,2013-09-25 22:17:00,
2013-09-25 18:22:00,52.0,45.1,29.94,West,270,0.0,0.7,77,0.00,,,0.00,WUHU216HW,2013-09-25 22:22:00,
2013-09-25 18:27:00,52.0,45.1,29.94,WSW,248,0.0,0.4,77,0.00,,,0.00,WUHU216HW,2013-09-25 22:27:00,
2013-09-25 18:32:00,51.8,44.9,29.94,West,270,0.0,0.7,77,0.00,,,0.00,WUHU216HW,2013-09-25 22:32:00,
2013-09-25 18:37:00,51.8,44.9,29.94,WNW,293,0.0,0.7,77,0.00,,,0.00,WUHU216HW,2013-09-25 22:37:00,
2013-09-25 18:42:00,51.7,45.0,29.95,North,0,0.0,0.2,78,0.00,,,0.00,WUHU216HW,2013-09-25 22:42:00,
2013-09-25 18:47:00,51.5,44.8,29.95,North,0,0.0,0.0,78,0.00,,,0.00,WUHU216HW,2013-09-25 22:47:00,
2013-09-25 18:52:00,51.5,44.8,29.95,North,0,0.0,0.0,78,0.00,,,0.00,WUHU216HW,2013-09-25 22:52:00,
2013-09-25 18:57:00,51.3,44.6,29.95,NNW,338,0.0,0.0,78,0.00,,,0.00,WUHU216HW,2013-09-25 22:57:00,
2013-09-25 19:02:00,51.3,45.0,29.94,ESE,113,1.3,1.3,79,0.00,,,0.00,WUHU216HW,2013-09-25 23:02:00,
2013-09-25 19:07:00,50.9,45.0,29.95,East,90,0.7,1.8,80,0.00,,,0.00,WUHU216HW,2013-09-25 23:07:00,
2013-09-25 19:12:00,50.9,45.0,29.95,ENE,68,0.4,1.8,80,0.00,,,0.00,WUHU216HW,2013-09-25 23:12:00,
2013-09-25 19:17:00,50.8,44.8,29.95,ENE,68,0.0,1.1,80,0.00,,,0.00,WUHU216HW,2013-09-25 23:17:00,
2013-09-25 19:22:00,50.8,45.1,29.95,NE,45,0.0,1.1,81,0.00,,,0.00,WUHU216HW,2013-09-25 23:22:00,
2013-09-25 19:27:00,50.6,44.9,29.95,NE,45,0.7,1.1,81,0.00,,,0.00,WUHU216HW,2013-09-25 23:27:00,
2013-09-25 19:32:00,50.2,44.9,29.96,NNW,338,0.4,1.3,82,0.00,,,0.00,WUHU216HW,2013-09-25 23:32:00,
2013-09-25 19:37:00,50.2,44.9,29.95,North,0,0.0,1.3,82,0.00,,,0.00,WUHU216HW,2013-09-25 23:37:00,
2013-09-25 19:42:00,50.2,44.9,29.95,NNE,23,0.0,0.4,82,0.00,,,0.00,WUHU216HW,2013-09-25 23:42:00,
2013-09-25 19:47:00,50.0,45.0,29.96,East,90,0.7,1.6,83,0.00,,,0.00,WUHU216HW,2013-09-25 23:47:00,
2013-09-25 19:53:00,49.9,44.8,29.96,East,90,0.0,1.6,83,0.00,,,0.00,WUHU216HW,2013-09-25 23:53:00,
2013-09-25 19:58:00,49.9,44.8,29.96,East,90,0.4,1.1,83,0.00,,,0.00,WUHU216HW,2013-09-25 23:58:00,
2013-09-25 20:03:00,49.9,45.5,29.96,ENE,68,1.1,2.2,85,0.00,,,0.00,WUHU216HW,2013-09-26 00:03:00,
2013-09-25 20:08:00,49.7,45.3,29.96,North,0,0.0,2.2,85,0.00,,,0.00,WUHU216HW,2013-09-26 00:08:00,
2013-09-25 20:13:00,49.5,44.8,29.96,NNE,23,0.4,1.1,84,0.00,,,0.00,WUHU216HW,2013-09-26 00:13:00,
2013-09-25 20:18:00,49.5,44.8,29.96,NNW,338,0.0,0.9,84,0.00,,,0.00,WUHU216HW,2013-09-26 00:18:00,
2013-09-25 20:23:00,49.5,44.8,29.96,NNW,338,0.0,0.9,84,0.00,,,0.00,WUHU216HW,2013-09-26 00:23:00,
2013-09-25 20:28:00,49.5,44.8,29.96,NNW,338,0.0,0.0,84,0.00,,,0.00,WUHU216HW,2013-09-26 00:28:00,
2013-09-25 20:33:00,49.5,44.8,29.97,NNW,338,0.0,0.0,84,0.00,,,0.00,WUHU216HW,2013-09-26 00:33:00,
2013-09-25 20:38:00,49.5,44.8,29.97,NNW,338,0.0,0.0,84,0.00,,,0.00,WUHU216HW,2013-09-26 00:38:00,
2013-09-25 20:43:00,49.3,44.7,29.97,NNW,338,0.0,0.0,84,0.00,,,0.00,WUHU216HW,2013-09-26 00:43:00,
2013-09-25 20:48:00,49.3,44.7,29.97,NNW,338,0.0,0.0,84,0.00,,,0.00,WUHU216HW,2013-09-26 00:48:00,
2013-09-25 20:53:00,49.3,44.9,29.97,NNE,23,1.1,1.1,85,0.00,,,0.00,WUHU216HW,2013-09-26 00:53:00,
2013-09-25 20:58:00,49.1,44.8,29.97,NE,45,0.0,1.1,85,0.00,,,0.00,WUHU216HW,2013-09-26 00:58:00,
2013-09-25 21:03:00,49.1,44.8,29.97,East,90,0.2,0.9,85,0.00,,,0.00,WUHU216HW,2013-09-26 01:03:00,
2013-09-25 21:08:00,49.1,44.8,29.97,ESE,113,0.0,0.9,85,0.00,,,0.00,WUHU216HW,2013-09-26 01:08:00,
2013-09-25 21:13:00,49.1,44.8,29.97,ESE,113,0.0,0.9,85,0.00,,,0.00,WUHU216HW,2013-09-26 01:13:00,
2013-09-25 21:18:00,49.1,44.8,29.97,ESE,113,0.0,0.0,85,0.00,,,0.00,WUHU216HW,2013-09-26 01:18:00,
2013-09-25 21:23:00,49.0,44.7,29.97,ESE,113,0.0,0.0,85,0.00,,,0.00,WUHU216HW,2013-09-26 01:23:00,
2013-09-25 21:28:00,48.8,44.5,29.97,NNE,23,0.9,1.1,85,0.00,,,0.00,WUHU216HW,2013-09-26 01:28:00,
2013-09-25 21:33:00,48.6,44.6,29.97,NNE,23,1.1,1.1,86,0.00,,,0.00,WUHU216HW,2013-09-26 01:33:00,
2013-09-25 21:38:00,48.4,44.7,29.97,NE,45,0.7,1.1,87,0.00,,,0.00,WUHU216HW,2013-09-26 01:38:00,
2013-09-25 21:43:00,48.2,44.9,29.97,North,0,0.0,1.1,88,0.00,,,0.00,WUHU216HW,2013-09-26 01:43:00,
2013-09-25 21:48:00,48.2,44.9,29.97,NE,45,2.0,2.5,88,0.00,,,0.00,WUHU216HW,2013-09-26 01:48:00,
2013-09-25 21:53:00,48.4,45.1,29.97,North,0,0.4,2.7,88,0.00,,,0.00,WUHU216HW,2013-09-26 01:53:00,
2013-09-25 21:58:00,48.8,45.4,29.98,North,0,0.0,2.7,88,0.00,,,0.00,WUHU216HW,2013-09-26 01:58:00,
2013-09-25 22:04:00,48.8,45.1,29.98,NE,45,1.1,2.0,87,0.00,,,0.00,WUHU216HW,2013-09-26 02:04:00,
2013-09-25 22:09:00,49.0,45.3,29.98,NE,45,0.7,1.8,87,0.00,,,0.00,WUHU216HW,2013-09-26 02:09:00,
2013-09-25 22:14:00,49.0,44.9,29.98,NE,45,0.0,1.8,86,0.00,,,0.00,WUHU216HW,2013-09-26 02:14:00,
2013-09-25 22:19:00,49.0,44.9,29.98,East,90,0.2,1.1,86,0.00,,,0.00,WUHU216HW,2013-09-26 02:19:00,
2013-09-25 22:24:00,49.0,44.9,29.98,ENE,68,0.0,1.1,86,0.00,,,0.00,WUHU216HW,2013-09-26 02:24:00,
2013-09-25 22:29:00,48.8,44.7,29.97,NE,45,0.2,0.7,86,0.00,,,0.00,WUHU216HW,2013-09-26 02:29:00,
2013-09-25 22:34:00,48.6,44.6,29.97,NNE,23,0.0,0.7,86,0.00,,,0.00,WUHU216HW,2013-09-26 02:34:00,
2013-09-25 22:39:00,48.6,44.6,29.97,West,270,0.0,0.4,86,0.00,,,0.00,WUHU216HW,2013-09-26 02:39:00,
2013-09-25 22:44:00,48.6,44.6,29.97,West,270,0.0,0.4,86,0.00,,,0.00,WUHU216HW,2013-09-26 02:44:00,
2013-09-25 22:49:00,48.6,44.6,29.98,West,270,0.0,0.7,86,0.00,,,0.00,WUHU216HW,2013-09-26 02:49:00,
2013-09-25 22:54:00,48.6,44.6,29.97,West,270,0.0,0.7,86,0.00,,,0.00,WUHU216HW,2013-09-26 02:54:00,
2013-09-25 22:59:00,48.4,44.4,29.97,WNW,293,0.0,0.0,86,0.00,,,0.00,WUHU216HW,2013-09-26 02:59:00,
2013-09-25 23:04:00,48.4,44.4,29.98,WNW,293,0.0,0.0,86,0.00,,,0.00,WUHU216HW,2013-09-26 03:04:00,
2013-09-25 23:09:00,48.2,44.3,29.97,ENE,68,0.0,0.0,86,0.00,,,0.00,WUHU216HW,2013-09-26 03:09:00,
2013-09-25 23:14:00,48.2,44.6,29.97,ENE,68,0.0,0.0,87,0.00,,,0.00,WUHU216HW,2013-09-26 03:14:00,
2013-09-25 23:19:00,47.9,44.2,29.98,ENE,68,0.4,1.3,87,0.00,,,0.00,WUHU216HW,2013-09-26 03:19:00,
2013-09-25 23:24:00,47.9,44.2,29.97,ENE,68,0.0,1.3,87,0.00,,,0.00,WUHU216HW,2013-09-26 03:24:00,
2013-09-25 23:29:00,47.7,44.0,29.97,ENE,68,0.0,0.4,87,0.00,,,0.00,WUHU216HW,2013-09-26 03:29:00,
2013-09-25 23:34:00,47.5,43.8,29.97,ENE,68,0.0,0.0,87,0.00,,,0.00,WUHU216HW,2013-09-26 03:34:00,
2013-09-25 23:39:00,47.3,43.7,29.98,SE,135,0.4,0.4,87,0.00,,,0.00,WUHU216HW,2013-09-26 03:39:00,
2013-09-25 23:44:00,47.0,43.4,29.98,SE,135,0.0,0.4,87,0.00,,,0.00,WUHU216HW,2013-09-26 03:44:00,
2013-09-25 23:49:00,46.6,43.0,29.98,NNE,23,0.4,0.7,87,0.00,,,0.00,WUHU216HW,2013-09-26 03:49:00,
2013-09-25 23:54:00,46.3,42.7,29.98,NNW,338,0.0,0.7,87,0.00,,,0.00,WUHU216HW,2013-09-26 03:54:00,
2013-09-25 23:59:00,45.9,42.3,29.98,NNW,338,0.0,0.4,87,0.00,,,0.00,WUHU216HW,2013-09-26 03:59:00,